KMIV

Millville Municipal Airport

Millville, New Jersey, USA
KMIV 230535Z 2306/2406 19005KT P6SM BKN200 FM231500 20008KT P6SM OVC080 FM232200 18010KT P6SM OVC040 FM240000 18010KT P6SM OVC035 WS020/20040KT FM240200 18012KT P6SM OVC025 WS020/20045KT
Issued Valid From Valid To
Jan-23 @ 05:35 UTC
(2 hours ago)
Jan-23 @ 06:00 UTC
(2 hours ago)
Jan-24 @ 06:00 UTC
(in 22 hours)
Jan-23 @ 06:00 to Jan-23 @ 15:00
KMIV 230535Z 2306/2406 19005KT P6SM BKN200
Wind Visibility Clouds
190° at 5 knots Greater than 6 miles
  • Broken at 20,000' AGL
From Jan-23 @ 15:00 to Jan-23 @ 22:00
FM231500 20008KT P6SM OVC080
Wind Visibility Clouds
200° at 8 knots Greater than 6 miles
  • Overcast at 8,000' AGL
From Jan-23 @ 22:00 to Jan-24 @ 00:00
FM232200 18010KT P6SM OVC040
Wind Visibility Clouds
180° at 10 knots Greater than 6 miles
  • Overcast at 4,000' AGL
From Jan-24 @ 00:00 to Jan-24 @ 02:00
FM240000 18010KT P6SM OVC035 WS020/20040KT
Wind Visibility Clouds
180° at 10 knots
 Wind shear 2,000' AGL from 200° at 40 knots
Greater than 6 miles
  • Overcast at 3,500' AGL
From Jan-24 @ 02:00 to Jan-24 @ 06:00
FM240200 18012KT P6SM OVC025 WS020/20045KT
Wind Visibility Clouds
180° at 12 knots
 Wind shear 2,000' AGL from 200° at 45 knots
Greater than 6 miles
  • Overcast at 2,500' AGL
KMIV 230535Z 2306/2406 19005KT P6SM BKN200 FM231500 20008KT P6SM OVC080 FM232200 18010KT P6SM OVC040 FM240000 18010KT P6SM OVC035 WS020/20040KT FM240200 18012KT P6SM OVC025 WS020/20045KT
Issued Jan-23 @ 05:35 UTC
(2 hours ago)
Valid From Jan-23 @ 06:00 UTC
(2 hours ago)
Valid To Jan-24 @ 06:00 UTC
(in 22 hours)
Jan-23 @ 06:00 - Jan-23 @ 15:00
Wind Visibility
190° at 5 knots Greater than 6 miles
Clouds
  • Broken at 20,000' AGL
From Jan-23 @ 15:00 - Jan-23 @ 22:00
Wind Visibility
200° at 8 knots Greater than 6 miles
Clouds
  • Overcast at 8,000' AGL
From Jan-23 @ 22:00 - Jan-24 @ 00:00
Wind Visibility
180° at 10 knots Greater than 6 miles
Clouds
  • Overcast at 4,000' AGL
From Jan-24 @ 00:00 - Jan-24 @ 02:00
Wind Visibility
180° at 10 knots Greater than 6 miles
Clouds
  • Overcast at 3,500' AGL
From Jan-24 @ 02:00 - Jan-24 @ 06:00
Wind Visibility
180° at 12 knots Greater than 6 miles
Clouds
  • Overcast at 2,500' AGL